createdAt,value
2022-11-22T00:00:12.678Z,1001.96
2022-11-22T00:01:12.859Z,1001.92
2022-11-22T00:02:13.066Z,1001.86
2022-11-22T00:03:13.179Z,1001.91
2022-11-22T00:04:13.343Z,1001.87
2022-11-22T00:05:13.518Z,1001.91
2022-11-22T00:06:13.719Z,1001.94
2022-11-22T00:07:13.863Z,1001.90
2022-11-22T00:08:14.011Z,1001.89
2022-11-22T00:09:14.180Z,1001.86
2022-11-22T00:10:14.350Z,1001.79
2022-11-22T00:11:14.533Z,1001.80
2022-11-22T00:12:14.690Z,1001.71
2022-11-22T00:13:14.840Z,1001.70
2022-11-22T00:14:15.019Z,1001.74
2022-11-22T00:15:15.172Z,1001.76
2022-11-22T00:16:15.359Z,1001.79
2022-11-22T00:17:15.527Z,1001.77
2022-11-22T00:18:15.680Z,1001.83
2022-11-22T00:19:15.842Z,1001.80
2022-11-22T00:20:16.030Z,1001.82
2022-11-22T00:21:16.211Z,1001.74
2022-11-22T00:22:16.371Z,1001.71
2022-11-22T00:23:16.540Z,1001.69
2022-11-22T00:24:16.713Z,1001.70
2022-11-22T00:25:16.876Z,1001.76
2022-11-22T00:26:17.047Z,1001.74
2022-11-22T00:27:17.207Z,1001.75
2022-11-22T00:28:17.373Z,1001.72
2022-11-22T00:29:17.544Z,1001.69
2022-11-22T00:30:17.713Z,1001.71
2022-11-22T00:31:17.894Z,1001.68
2022-11-22T00:32:18.062Z,1001.71
2022-11-22T00:33:18.223Z,1001.70
2022-11-22T00:34:18.386Z,1001.62
2022-11-22T00:35:18.548Z,1001.67
2022-11-22T00:36:18.727Z,1001.66
2022-11-22T00:37:18.875Z,1001.70
2022-11-22T00:38:19.063Z,1001.66
2022-11-22T00:39:19.223Z,1001.67
2022-11-22T00:40:19.388Z,1001.70
2022-11-22T00:41:19.595Z,1001.77
2022-11-22T00:42:19.732Z,1001.72
2022-11-22T00:43:19.906Z,1001.70
2022-11-22T00:44:20.066Z,1001.66
2022-11-22T00:45:20.235Z,1001.60
2022-11-22T00:46:20.416Z,1001.58
2022-11-22T00:47:20.583Z,1001.52
2022-11-22T00:48:20.758Z,1001.48
2022-11-22T00:49:20.919Z,1001.56
2022-11-22T00:50:21.078Z,1001.54
2022-11-22T00:51:21.258Z,1001.56
2022-11-22T00:52:21.417Z,1001.51
2022-11-22T00:53:21.607Z,1001.58
2022-11-22T00:54:21.768Z,1001.60
2022-11-22T00:55:21.949Z,1001.60
2022-11-22T00:56:22.099Z,1001.57
2022-11-22T00:57:22.381Z,1001.51
2022-11-22T00:58:22.442Z,1001.47
2022-11-22T00:59:22.609Z,1001.44
2022-11-22T01:00:22.782Z,1001.51
2022-11-22T01:01:22.984Z,1001.49
2022-11-22T01:02:23.130Z,1001.51
2022-11-22T01:03:23.279Z,1001.53
2022-11-22T01:04:23.450Z,1001.55
2022-11-22T01:05:23.630Z,1001.53
2022-11-22T01:06:23.790Z,1001.56
2022-11-22T01:07:24.007Z,1001.55
2022-11-22T01:08:24.151Z,1001.50
2022-11-22T01:09:24.300Z,1001.48
2022-11-22T01:10:24.472Z,1001.48
2022-11-22T01:11:24.641Z,1001.41
2022-11-22T01:12:24.825Z,1001.40
2022-11-22T01:13:24.990Z,1001.44
2022-11-22T01:14:25.151Z,1001.39
2022-11-22T01:15:25.312Z,1001.43
2022-11-22T01:16:25.500Z,1001.43
2022-11-22T01:17:25.662Z,1001.50
2022-11-22T01:18:25.816Z,1001.52
2022-11-22T01:19:25.982Z,1001.53
2022-11-22T01:20:26.153Z,1001.56
2022-11-22T01:21:26.344Z,1001.50
2022-11-22T01:22:26.502Z,1001.51
2022-11-22T01:23:26.663Z,1001.49
2022-11-22T01:24:26.832Z,1001.52
2022-11-22T01:25:27.003Z,1001.46
2022-11-22T01:26:27.174Z,1001.47
2022-11-22T01:27:27.335Z,1001.40
2022-11-22T01:28:27.500Z,1001.34
2022-11-22T01:29:27.854Z,1001.36
2022-11-22T01:30:27.864Z,1001.42
2022-11-22T01:31:28.025Z,1001.37
2022-11-22T01:32:28.195Z,1001.37
2022-11-22T01:33:28.366Z,1001.33
2022-11-22T01:34:28.545Z,1001.34
2022-11-22T01:35:28.719Z,1001.34
2022-11-22T01:36:28.865Z,1001.38
2022-11-22T01:37:29.054Z,1001.34
2022-11-22T01:38:29.215Z,1001.36
2022-11-22T01:39:29.786Z,1001.35
2022-11-22T01:40:29.554Z,1001.34
2022-11-22T01:41:29.736Z,1001.36
2022-11-22T01:42:29.897Z,1001.40
2022-11-22T01:43:30.067Z,1001.44
2022-11-22T01:44:30.256Z,1001.39
2022-11-22T01:45:30.406Z,1001.42
2022-11-22T01:46:30.576Z,1001.41
2022-11-22T01:47:30.748Z,1001.40
2022-11-22T01:48:30.918Z,1001.42
2022-11-22T01:49:31.306Z,1001.40
2022-11-22T01:50:31.258Z,1001.42
2022-11-22T01:51:31.442Z,1001.40
2022-11-22T01:52:31.600Z,1001.36
2022-11-22T01:53:31.789Z,1001.31
2022-11-22T01:54:31.951Z,1001.33
2022-11-22T01:55:32.098Z,1001.36
2022-11-22T01:56:32.268Z,1001.41
2022-11-22T01:57:32.447Z,1001.46
2022-11-22T01:58:32.608Z,1001.50
2022-11-22T01:59:32.966Z,1001.53
2022-11-22T02:00:32.943Z,1001.50
2022-11-22T02:01:33.199Z,1001.54
2022-11-22T02:02:33.294Z,1001.54
2022-11-22T02:03:33.456Z,1001.60
2022-11-22T02:04:33.629Z,1001.59
2022-11-22T02:05:33.790Z,1001.59
2022-11-22T02:06:33.949Z,1001.59
2022-11-22T02:07:34.397Z,1001.62
2022-11-22T02:08:34.282Z,1001.62
2022-11-22T02:09:34.451Z,1001.64
2022-11-22T02:10:34.621Z,1001.61
2022-11-22T02:11:34.784Z,1001.57
2022-11-22T02:12:34.982Z,1001.54
2022-11-22T02:13:35.151Z,1001.52
2022-11-22T02:14:35.341Z,1001.50
2022-11-22T02:15:35.504Z,1001.49
2022-11-22T02:16:35.659Z,1001.49
2022-11-22T02:17:35.842Z,1001.46
2022-11-22T02:18:36.012Z,1001.43
2022-11-22T02:19:36.176Z,1001.39
2022-11-22T02:20:36.334Z,1001.34
2022-11-22T02:21:36.502Z,1001.31
2022-11-22T02:22:36.685Z,1001.23
2022-11-22T02:23:36.850Z,1001.30
2022-11-22T02:24:37.001Z,1001.22
2022-11-22T02:25:37.171Z,1001.18
2022-11-22T02:26:37.324Z,1001.20
2022-11-22T02:27:37.524Z,1001.24
2022-11-22T02:28:37.644Z,1001.19
2022-11-22T02:29:37.824Z,1001.29
2022-11-22T02:30:37.985Z,1001.27
2022-11-22T02:31:38.166Z,1001.32
2022-11-22T02:32:38.350Z,1001.25
2022-11-22T02:33:38.504Z,1001.20
2022-11-22T02:34:38.664Z,1001.22
2022-11-22T02:35:38.834Z,1001.21
2022-11-22T02:36:39.006Z,1001.15
2022-11-22T02:37:39.185Z,1001.13
2022-11-22T02:38:39.336Z,1001.11
2022-11-22T02:39:39.505Z,1001.09
2022-11-22T02:40:39.683Z,1001.07
2022-11-22T02:41:39.837Z,1001.06
2022-11-22T02:42:40.024Z,1001.06
2022-11-22T02:43:40.191Z,1001.05
2022-11-22T02:44:40.347Z,1001.06
2022-11-22T02:45:40.517Z,1001.06
2022-11-22T02:46:40.666Z,1001.03
2022-11-22T02:47:40.857Z,1001.05
2022-11-22T02:48:41.006Z,1001.07
2022-11-22T02:49:41.178Z,1001.07
2022-11-22T02:50:41.338Z,1001.03
2022-11-22T02:51:41.509Z,1001.00
2022-11-22T02:52:41.678Z,1001.02
2022-11-22T02:53:41.856Z,1000.95
2022-11-22T02:54:42.019Z,1000.97
2022-11-22T02:55:42.187Z,1000.92
2022-11-22T02:56:42.348Z,1000.95
2022-11-22T02:57:42.521Z,1000.89
2022-11-22T02:58:42.698Z,1000.84
2022-11-22T02:59:42.849Z,1000.84
2022-11-22T03:00:43.061Z,1000.83
2022-11-22T03:01:43.198Z,1000.83
2022-11-22T03:02:43.383Z,1000.80
2022-11-22T03:03:43.540Z,1000.83
2022-11-22T03:04:43.689Z,1000.83
2022-11-22T03:05:43.869Z,1000.85
2022-11-22T03:06:44.020Z,1000.85
2022-11-22T03:07:44.299Z,1000.81
2022-11-22T03:08:44.371Z,1000.79
2022-11-22T03:09:51.542Z,1000.80
2022-11-22T03:10:44.709Z,1000.86
2022-11-22T03:11:44.872Z,1000.80
2022-11-22T03:12:45.047Z,1000.79
2022-11-22T03:13:45.211Z,1000.83
2022-11-22T03:14:45.361Z,1000.82
2022-11-22T03:15:45.530Z,1000.79
2022-11-22T03:16:45.711Z,1000.77
2022-11-22T03:17:45.874Z,1000.79
2022-11-22T03:18:46.024Z,1000.84
2022-11-22T03:19:46.193Z,1000.82
2022-11-22T03:20:46.360Z,1000.78
2022-11-22T03:21:46.547Z,1000.82
2022-11-22T03:22:46.720Z,1000.85
2022-11-22T03:23:46.863Z,1000.83
2022-11-22T03:24:47.034Z,1000.85
2022-11-22T03:25:47.221Z,1000.85
2022-11-22T03:26:47.373Z,1000.86
2022-11-22T03:27:47.545Z,1000.81
2022-11-22T03:28:47.706Z,1000.79
2022-11-22T03:29:47.895Z,1000.77
2022-11-22T03:30:48.051Z,1000.75
2022-11-22T03:31:48.220Z,1000.74
2022-11-22T03:32:48.386Z,1000.78
2022-11-22T03:33:48.557Z,1000.79
2022-11-22T03:34:48.734Z,1000.81
2022-11-22T03:35:48.895Z,1000.80
2022-11-22T03:36:49.053Z,1000.75
2022-11-22T03:37:49.236Z,1000.78
2022-11-22T03:38:49.386Z,1000.77
2022-11-22T03:39:49.571Z,1000.80
2022-11-22T03:40:49.731Z,1000.75
2022-11-22T03:41:49.897Z,1000.75
2022-11-22T03:42:50.046Z,1000.73
2022-11-22T03:43:50.227Z,1000.73
2022-11-22T03:44:50.389Z,1000.70
2022-11-22T03:45:50.546Z,1000.72
2022-11-22T03:46:50.710Z,1000.75
2022-11-22T03:47:50.884Z,1000.67
2022-11-22T03:48:51.036Z,1000.64
2022-11-22T03:49:51.242Z,1000.69
2022-11-22T03:50:51.367Z,1000.69
2022-11-22T03:51:51.540Z,1000.68
2022-11-22T03:52:51.706Z,1000.67
2022-11-22T03:53:51.877Z,1000.67
2022-11-22T03:54:52.077Z,1000.67
2022-11-22T03:55:52.236Z,1000.64
2022-11-22T03:56:52.383Z,1000.58
2022-11-22T03:57:52.555Z,1000.58
2022-11-22T03:58:52.718Z,1000.63
2022-11-22T03:59:52.890Z,1000.64
2022-11-22T04:00:53.039Z,1000.64
2022-11-22T04:01:53.274Z,1000.72
2022-11-22T04:02:53.369Z,1000.66
2022-11-22T04:03:53.543Z,1000.67
2022-11-22T04:04:53.711Z,1000.69
2022-11-22T04:05:53.870Z,1000.70
2022-11-22T04:06:54.040Z,1000.68
2022-11-22T04:07:54.255Z,1000.63
2022-11-22T04:08:54.408Z,1000.64
2022-11-22T04:09:54.553Z,1000.67
2022-11-22T04:10:54.720Z,1000.61
2022-11-22T04:11:54.881Z,1000.59
2022-11-22T04:12:55.041Z,1000.63
2022-11-22T04:13:55.218Z,1000.58
2022-11-22T04:14:55.390Z,1000.68
2022-11-22T04:15:55.549Z,1000.63
2022-11-22T04:16:55.711Z,1000.67
2022-11-22T04:17:55.880Z,1000.67
2022-11-22T04:18:56.031Z,1000.66
2022-11-22T04:19:56.232Z,1000.69
2022-11-22T04:20:56.361Z,1000.69
2022-11-22T04:21:56.531Z,1000.65
2022-11-22T04:22:56.689Z,1000.68
2022-11-22T04:23:56.863Z,1000.65
2022-11-22T04:24:57.043Z,1000.64
2022-11-22T04:25:57.213Z,1000.52
2022-11-22T04:26:57.375Z,1000.54
2022-11-22T04:27:57.544Z,1000.47
2022-11-22T04:29:09.273Z,1000.49
2022-11-22T04:29:58.897Z,1000.42
2022-11-22T04:30:58.085Z,1000.48
2022-11-22T04:31:58.242Z,1000.43
2022-11-22T04:32:58.410Z,1000.43
2022-11-22T04:33:58.578Z,1000.47
2022-11-22T04:34:58.758Z,1000.51
2022-11-22T04:35:58.924Z,1000.49
2022-11-22T04:36:59.075Z,1000.46
2022-11-22T04:37:59.244Z,1000.48
2022-11-22T04:38:59.414Z,1000.49
2022-11-22T04:39:59.615Z,1000.47
2022-11-22T04:40:59.735Z,1000.48
2022-11-22T04:41:59.899Z,1000.52
2022-11-22T04:43:00.055Z,1000.47
2022-11-22T04:44:00.225Z,1000.46
2022-11-22T04:45:00.404Z,1000.46
2022-11-22T04:46:00.567Z,1000.42
2022-11-22T04:47:00.724Z,1000.46
2022-11-22T04:48:00.893Z,1000.43
2022-11-22T04:49:01.077Z,1000.38
2022-11-22T04:50:01.227Z,1000.40
2022-11-22T04:51:01.406Z,1000.36
2022-11-22T04:52:01.573Z,1000.38
2022-11-22T04:53:01.735Z,1000.47
2022-11-22T04:54:01.897Z,1000.48
2022-11-22T04:55:02.089Z,1000.48
2022-11-22T04:56:02.239Z,1000.53
2022-11-22T04:57:02.409Z,1000.54
2022-11-22T04:58:02.568Z,1000.53
2022-11-22T04:59:02.738Z,1000.48
2022-11-22T05:00:02.917Z,1000.40
2022-11-22T05:01:03.132Z,1000.50
2022-11-22T05:02:03.280Z,1000.44
2022-11-22T05:03:03.418Z,1000.41
2022-11-22T05:04:03.577Z,1000.40
2022-11-22T05:05:03.751Z,1000.42
2022-11-22T05:06:03.928Z,1000.48
2022-11-22T05:07:04.122Z,1000.49
2022-11-22T05:08:04.248Z,1000.57
2022-11-22T05:09:04.418Z,1000.64
2022-11-22T05:10:04.579Z,1000.72
2022-11-22T05:11:04.764Z,1000.66
2022-11-22T05:12:04.918Z,1000.64
2022-11-22T05:13:05.115Z,1000.59
2022-11-22T05:14:05.273Z,1000.56
2022-11-22T05:15:05.439Z,1000.55
2022-11-22T05:16:05.626Z,1000.58
2022-11-22T05:17:05.780Z,1000.53
2022-11-22T05:18:05.949Z,1000.55
2022-11-22T05:19:06.111Z,1000.57
2022-11-22T05:20:06.279Z,1000.58
2022-11-22T05:21:06.459Z,1000.57
2022-11-22T05:22:06.611Z,1000.54
2022-11-22T05:23:06.791Z,1000.52
2022-11-22T05:24:06.942Z,1000.41
2022-11-22T05:25:07.121Z,1000.43
2022-11-22T05:26:07.283Z,1000.48
2022-11-22T05:27:07.461Z,1000.41
2022-11-22T05:28:07.606Z,1000.39
2022-11-22T05:29:07.778Z,1000.40
2022-11-22T05:30:07.932Z,1000.38
2022-11-22T05:31:08.091Z,1000.29
2022-11-22T05:32:08.273Z,1000.34
2022-11-22T05:33:08.444Z,1000.44
2022-11-22T05:34:08.593Z,1000.46
2022-11-22T05:35:08.762Z,1000.49
2022-11-22T05:36:08.929Z,1000.48
2022-11-22T05:37:09.122Z,1000.49
2022-11-22T05:38:09.279Z,1000.57
2022-11-22T05:39:09.446Z,1000.58
2022-11-22T05:40:09.608Z,1000.54
2022-11-22T05:41:09.783Z,1000.49
2022-11-22T05:42:09.945Z,1000.50
2022-11-22T05:43:10.105Z,1000.54
2022-11-22T05:44:10.268Z,1000.51
2022-11-22T05:45:10.435Z,1000.52
2022-11-22T05:46:10.611Z,1000.56
2022-11-22T05:47:10.766Z,1000.56
2022-11-22T05:48:10.934Z,1000.54
2022-11-22T05:49:11.095Z,1000.58
2022-11-22T05:50:11.254Z,1000.53
2022-11-22T05:51:11.453Z,1000.56
2022-11-22T05:52:11.607Z,1000.51
2022-11-22T05:53:11.765Z,1000.54
2022-11-22T05:54:11.936Z,1000.57
2022-11-22T05:55:12.105Z,1000.48
2022-11-22T05:56:12.277Z,1000.48
2022-11-22T05:57:12.440Z,1000.51
2022-11-22T05:58:12.605Z,1000.55
2022-11-22T05:59:12.776Z,1000.58
2022-11-22T06:00:12.947Z,1000.61
2022-11-22T06:01:13.122Z,1000.65
2022-11-22T06:02:13.335Z,1000.65
2022-11-22T06:03:13.457Z,1000.65
2022-11-22T06:04:13.627Z,1000.61
2022-11-22T06:05:13.809Z,1000.63
2022-11-22T06:06:13.949Z,1000.60
2022-11-22T06:07:14.214Z,1000.62
2022-11-22T06:08:14.287Z,1000.61
2022-11-22T06:09:14.477Z,1000.62
2022-11-22T06:10:14.628Z,1000.62
2022-11-22T06:11:14.806Z,1000.64
2022-11-22T06:12:14.976Z,1000.67
2022-11-22T06:13:15.148Z,1000.69
2022-11-22T06:14:15.331Z,1000.69
2022-11-22T06:15:15.494Z,1000.75
2022-11-22T06:16:15.658Z,1000.73
2022-11-22T06:17:15.828Z,1000.70
2022-11-22T06:18:15.984Z,1000.74
2022-11-22T06:19:16.161Z,1000.78
2022-11-22T06:20:16.333Z,1000.79
2022-11-22T06:21:16.481Z,1000.77
2022-11-22T06:22:16.679Z,1000.76
2022-11-22T06:23:16.851Z,1000.78
2022-11-22T06:24:17.000Z,1000.79
2022-11-22T06:25:17.174Z,1000.79
2022-11-22T06:26:17.344Z,1000.79
2022-11-22T06:27:17.522Z,1000.75
2022-11-22T06:28:17.688Z,1000.86
2022-11-22T06:29:17.850Z,1000.83
2022-11-22T06:30:18.021Z,1000.86
2022-11-22T06:31:18.191Z,1000.85
2022-11-22T06:32:18.371Z,1000.85
2022-11-22T06:33:18.533Z,1000.82
2022-11-22T06:34:18.704Z,1000.84
2022-11-22T06:35:18.871Z,1000.80
2022-11-22T06:36:19.032Z,1000.84
2022-11-22T06:37:19.223Z,1000.84
2022-11-22T06:38:19.374Z,1000.84
2022-11-22T06:39:19.542Z,1000.83
2022-11-22T06:40:19.704Z,1000.84
2022-11-22T06:41:19.876Z,1000.89
2022-11-22T06:42:20.060Z,1000.89
2022-11-22T06:43:20.225Z,1000.95
2022-11-22T06:44:20.386Z,1000.98
2022-11-22T06:45:20.552Z,1000.97
2022-11-22T06:46:20.713Z,1000.96
2022-11-22T06:47:20.902Z,1000.94
2022-11-22T06:48:21.054Z,1001.04
2022-11-22T06:49:21.231Z,1001.00
2022-11-22T06:50:21.990Z,1000.98
2022-11-22T06:51:21.565Z,1001.00
2022-11-22T06:52:21.744Z,1001.01
2022-11-22T06:53:45.659Z,1001.05
2022-11-22T06:54:23.066Z,1001.09
2022-11-22T06:55:49.220Z,1001.12
2022-11-22T06:56:23.437Z,1001.12
2022-11-22T06:57:22.638Z,1001.10
2022-11-22T06:58:22.806Z,1001.11
2022-11-22T06:59:22.965Z,1001.09
2022-11-22T07:00:23.126Z,1001.01
2022-11-22T07:01:23.348Z,1001.03
2022-11-22T07:02:23.466Z,1001.03
2022-11-22T07:03:23.648Z,1001.09
2022-11-22T07:04:23.795Z,1001.12
2022-11-22T07:05:25.940Z,1001.05
2022-11-22T07:06:24.128Z,1001.07
2022-11-22T07:07:24.333Z,1001.13
2022-11-22T07:08:24.466Z,1001.20
2022-11-22T07:09:24.638Z,1001.19
2022-11-22T07:10:24.788Z,1001.18
2022-11-22T07:11:24.961Z,1001.20
2022-11-22T07:12:25.126Z,1001.20
2022-11-22T07:13:25.307Z,1001.17
2022-11-22T07:14:25.449Z,1001.17
2022-11-22T07:15:25.628Z,1001.24
2022-11-22T07:16:25.801Z,1001.21
2022-11-22T07:17:25.983Z,1001.27
2022-11-22T07:18:26.159Z,1001.28
2022-11-22T07:19:26.327Z,1001.23
2022-11-22T07:20:26.497Z,1001.19
2022-11-22T07:21:26.666Z,1001.17
2022-11-22T07:22:26.829Z,1001.17
2022-11-22T07:23:27.029Z,1001.15
2022-11-22T07:24:27.208Z,1001.14
2022-11-22T07:25:27.368Z,1001.10
2022-11-22T07:26:27.527Z,1001.12
2022-11-22T07:27:27.695Z,1001.10
2022-11-22T07:28:27.872Z,1001.08
2022-11-22T07:29:28.413Z,1001.10
2022-11-22T07:30:28.236Z,1001.12
2022-11-22T07:31:28.445Z,1000.95
2022-11-22T07:32:28.590Z,1000.99
2022-11-22T07:33:28.781Z,1000.99
2022-11-22T07:34:28.945Z,1001.00
2022-11-22T07:35:29.111Z,1000.87
2022-11-22T07:36:29.278Z,1000.91
2022-11-22T07:37:29.442Z,1000.91
2022-11-22T07:38:29.622Z,1000.95
2022-11-22T07:39:29.953Z,1000.96
2022-11-22T07:40:29.960Z,1000.82
2022-11-22T07:41:30.125Z,1000.95
2022-11-22T07:42:30.286Z,1000.87
2022-11-22T07:43:30.487Z,1000.84
2022-11-22T07:44:30.632Z,1000.78
2022-11-22T07:45:30.811Z,1000.78
2022-11-22T07:46:31.003Z,1000.74
2022-11-22T07:47:31.143Z,1000.70
2022-11-22T07:48:31.355Z,1000.74
2022-11-22T07:49:31.697Z,1000.70
2022-11-22T07:50:31.675Z,1000.73
2022-11-22T07:51:31.869Z,1000.72
2022-11-22T07:52:32.264Z,1000.69
2022-11-22T07:53:32.219Z,1000.70
2022-11-22T07:54:32.371Z,1000.64
2022-11-22T07:55:32.552Z,1000.65
2022-11-22T07:56:32.692Z,1000.61
2022-11-22T07:57:32.884Z,1000.67
2022-11-22T07:58:33.046Z,1000.58
2022-11-22T07:59:33.217Z,1000.58
2022-11-22T08:00:33.368Z,1000.57
2022-11-22T08:01:33.595Z,1000.56
2022-11-22T08:02:33.716Z,1000.57
2022-11-22T08:03:33.914Z,1000.57
2022-11-22T08:04:34.056Z,1000.56
2022-11-22T08:05:34.239Z,1000.51
2022-11-22T08:06:34.437Z,1000.54
2022-11-22T08:07:34.631Z,1000.51
2022-11-22T08:08:34.746Z,1000.47
2022-11-22T08:09:34.927Z,1000.63
2022-11-22T08:10:35.101Z,1000.59
2022-11-22T08:11:35.296Z,1000.61
2022-11-22T08:12:35.441Z,1000.63
2022-11-22T08:13:35.638Z,1000.57
2022-11-22T08:14:35.787Z,1000.60
2022-11-22T08:15:35.949Z,1000.55
2022-11-22T08:16:36.109Z,1000.59
2022-11-22T08:17:36.262Z,1000.64
2022-11-22T08:18:36.449Z,1000.58
2022-11-22T08:19:36.601Z,1000.62
2022-11-22T08:20:36.809Z,1000.59
2022-11-22T08:21:36.949Z,1000.55
2022-11-22T08:22:37.124Z,1000.57
2022-11-22T08:23:37.322Z,1000.59
2022-11-22T08:24:37.468Z,1000.53
2022-11-22T08:25:37.649Z,1000.49
2022-11-22T08:26:37.792Z,1000.53
2022-11-22T08:27:37.982Z,1000.60
2022-11-22T08:28:38.137Z,1000.62
2022-11-22T08:29:38.308Z,1000.64
2022-11-22T08:30:38.507Z,1000.64
2022-11-22T08:31:38.669Z,1000.70
2022-11-22T08:32:38.820Z,1000.71
2022-11-22T08:33:38.999Z,1000.74
2022-11-22T08:34:44.134Z,1000.77
2022-11-22T08:35:40.352Z,1000.76
2022-11-22T08:36:39.501Z,1000.82
2022-11-22T08:37:39.662Z,1000.76
2022-11-22T08:38:39.832Z,1000.73
2022-11-22T08:39:40.012Z,1000.74
2022-11-22T08:40:41.249Z,1000.59
2022-11-22T08:41:40.357Z,1000.65
2022-11-22T08:42:40.573Z,1000.73
2022-11-22T08:43:40.754Z,1000.78
2022-11-22T08:44:40.862Z,1000.84
2022-11-22T08:45:41.033Z,1000.87
2022-11-22T08:46:41.218Z,1000.86
2022-11-22T08:47:41.421Z,1000.91
2022-11-22T08:48:41.587Z,1000.91
2022-11-22T08:49:41.734Z,1000.93
2022-11-22T08:50:41.903Z,1000.92
2022-11-22T08:51:42.084Z,1000.96
2022-11-22T08:52:42.288Z,1000.96
2022-11-22T08:53:42.436Z,1000.98
2022-11-22T08:54:42.587Z,1001.03
2022-11-22T08:55:42.764Z,1001.03
2022-11-22T08:56:42.923Z,1001.05
2022-11-22T08:57:43.110Z,1001.02
2022-11-22T08:58:43.301Z,1001.03
2022-11-22T08:59:43.507Z,1001.02
2022-11-22T09:00:43.596Z,1001.00
2022-11-22T09:01:43.796Z,1000.98
2022-11-22T09:02:43.966Z,1001.01
2022-11-22T09:03:44.132Z,1001.04
2022-11-22T09:04:44.278Z,1001.11
2022-11-22T09:08:55.351Z,1001.09
2022-11-22T09:09:46.523Z,1001.09
2022-11-22T09:10:52.349Z,1001.08
2022-11-22T09:11:45.503Z,1001.10
2022-11-22T09:12:45.687Z,1001.07
2022-11-22T09:13:45.880Z,1001.11
2022-11-22T09:14:46.031Z,1001.12
2022-11-22T09:15:46.209Z,1001.13
2022-11-22T09:16:46.381Z,1001.07
2022-11-22T09:17:46.573Z,1001.15
2022-11-22T09:18:46.751Z,1001.12
2022-11-22T09:19:46.914Z,1001.17
2022-11-22T09:20:47.063Z,1001.16
2022-11-22T09:21:47.253Z,1001.12
2022-11-22T09:22:47.423Z,1001.11
2022-11-22T09:23:47.622Z,1001.15
2022-11-22T09:24:47.773Z,1001.06
2022-11-22T09:25:47.924Z,1001.16
2022-11-22T09:26:48.107Z,1001.16
2022-11-22T09:27:48.285Z,1001.18
2022-11-22T09:28:48.465Z,1001.19
2022-11-22T09:29:52.216Z,1001.27
2022-11-22T09:30:48.778Z,1001.23
2022-11-22T09:31:48.938Z,1001.24
2022-11-22T09:32:49.108Z,1001.33
2022-11-22T09:33:49.307Z,1001.29
2022-11-22T09:34:49.427Z,1001.39
2022-11-22T09:35:49.588Z,1001.44
2022-11-22T09:36:49.770Z,1001.47
2022-11-22T09:37:49.945Z,1001.45
2022-11-22T09:38:50.146Z,1001.43
2022-11-22T09:39:50.294Z,1001.42
2022-11-22T09:40:50.466Z,1001.41
2022-11-22T09:41:50.636Z,1001.46
2022-11-22T09:42:50.818Z,1001.47
2022-11-22T09:43:50.995Z,1001.47
2022-11-22T09:44:51.143Z,1001.47
2022-11-22T09:45:51.296Z,1001.40
2022-11-22T09:46:51.489Z,1001.45
2022-11-22T09:47:51.677Z,1001.38
2022-11-22T09:48:51.865Z,1001.46
2022-11-22T09:49:52.011Z,1001.42
2022-11-22T09:50:52.198Z,1001.45
2022-11-22T09:51:52.444Z,1001.54
2022-11-22T09:52:52.552Z,1001.53
2022-11-22T09:53:52.749Z,1001.50
2022-11-22T09:54:52.905Z,1001.53
2022-11-22T09:55:53.096Z,1001.55
2022-11-22T09:56:53.298Z,1001.54
2022-11-22T09:57:53.458Z,1001.54
2022-11-22T09:58:53.613Z,1001.50
2022-11-22T09:59:53.769Z,1001.43
2022-11-22T10:00:53.990Z,1001.44
2022-11-22T10:01:54.154Z,1001.47
2022-11-22T10:03:00.402Z,1001.40
2022-11-22T10:03:55.474Z,1001.49
2022-11-22T10:04:54.624Z,1001.47
2022-11-22T10:05:54.810Z,1001.55
2022-11-22T10:06:55.020Z,1001.49
2022-11-22T10:07:55.239Z,1001.59
2022-11-22T10:08:55.339Z,1001.58
2022-11-22T10:09:55.494Z,1001.57
2022-11-22T10:10:55.715Z,1001.55
2022-11-22T10:11:55.821Z,1001.55
2022-11-22T10:12:56.019Z,1001.54
2022-11-22T10:13:59.169Z,1001.48
2022-11-22T10:14:56.356Z,1001.49
2022-11-22T10:15:56.542Z,1001.49
2022-11-22T10:16:56.701Z,1001.47
2022-11-22T10:17:56.861Z,1001.47
2022-11-22T10:18:57.046Z,1001.44
2022-11-22T10:19:57.224Z,1001.43
2022-11-22T10:20:57.421Z,1001.52
2022-11-22T10:21:57.558Z,1001.51
2022-11-22T10:22:57.736Z,1001.53
2022-11-22T10:23:57.902Z,1001.52
2022-11-22T10:24:58.073Z,1001.54
2022-11-22T10:25:58.285Z,1001.53
2022-11-22T10:26:58.423Z,1001.53
2022-11-22T10:28:00.834Z,1001.49
2022-11-22T10:28:58.765Z,1001.51
2022-11-22T10:29:58.937Z,1001.52
2022-11-22T10:30:59.108Z,1001.54
2022-11-22T10:31:59.252Z,1001.52
2022-11-22T10:32:59.435Z,1001.52
2022-11-22T10:33:59.580Z,1001.55
2022-11-22T10:34:59.771Z,1001.48
2022-11-22T10:35:59.936Z,1001.53
2022-11-22T10:37:00.097Z,1001.52
2022-11-22T10:38:00.265Z,1001.52
2022-11-22T10:39:00.455Z,1001.44
2022-11-22T10:40:00.636Z,1001.48
2022-11-22T10:41:00.776Z,1001.49
2022-11-22T10:42:00.960Z,1001.44
2022-11-22T10:43:01.137Z,1001.45
2022-11-22T10:44:01.295Z,1001.48
2022-11-22T10:45:01.493Z,1001.49
2022-11-22T10:46:01.632Z,1001.41
2022-11-22T10:47:01.817Z,1001.39
2022-11-22T10:48:01.959Z,1001.36
2022-11-22T10:49:02.142Z,1001.33
2022-11-22T10:50:02.339Z,1001.33
2022-11-22T10:51:02.488Z,1001.25
2022-11-22T10:52:02.670Z,1001.30
2022-11-22T10:53:02.845Z,1001.23
2022-11-22T10:54:03.913Z,1001.26
2022-11-22T10:55:03.185Z,1001.25
2022-11-22T10:56:03.349Z,1001.29
2022-11-22T10:57:03.529Z,1001.25
2022-11-22T10:58:03.703Z,1001.29
2022-11-22T10:59:03.899Z,1001.30
2022-11-22T11:00:04.048Z,1001.30
2022-11-22T11:01:04.270Z,1001.25
2022-11-22T11:02:04.387Z,1001.28
2022-11-22T11:03:04.553Z,1001.31
2022-11-22T11:04:04.710Z,1001.26
2022-11-22T11:05:04.882Z,1001.23
2022-11-22T11:06:22.832Z,1001.24
2022-11-22T11:07:13.370Z,1001.22
2022-11-22T11:08:36.729Z,1001.24
2022-11-22T11:10:12.114Z,1001.19
2022-11-22T11:11:06.931Z,1001.22
2022-11-22T11:12:06.090Z,1001.20
2022-11-22T11:13:06.262Z,1001.20
2022-11-22T11:14:06.442Z,1001.22
2022-11-22T11:15:06.605Z,1001.22
2022-11-22T11:16:06.778Z,1001.12
2022-11-22T11:17:06.953Z,1001.11
2022-11-22T11:18:07.136Z,1001.14
2022-11-22T11:19:07.325Z,1001.13
2022-11-22T11:20:07.476Z,1001.09
2022-11-22T11:21:07.675Z,1001.08
2022-11-22T11:22:07.827Z,1001.10
2022-11-22T11:23:16.060Z,1001.10
2022-11-22T11:24:09.177Z,1001.17
2022-11-22T11:25:08.328Z,1001.14
2022-11-22T11:26:08.501Z,1001.14
2022-11-22T11:27:08.684Z,1001.09
2022-11-22T11:28:08.859Z,1001.09
2022-11-22T11:29:09.064Z,1001.08
2022-11-22T11:30:09.175Z,1001.10
2022-11-22T11:31:09.348Z,1001.07
2022-11-22T11:32:09.521Z,1001.10
2022-11-22T11:33:09.733Z,1001.08
2022-11-22T11:34:09.895Z,1001.10
2022-11-22T11:35:10.036Z,1001.06
2022-11-22T11:36:10.205Z,1001.09
2022-11-22T11:37:10.386Z,1001.08
2022-11-22T11:38:10.557Z,1001.04
2022-11-22T11:39:10.761Z,1001.03
2022-11-22T11:40:10.908Z,1001.11
2022-11-22T11:41:11.100Z,1001.12
2022-11-22T11:42:11.252Z,1001.11
2022-11-22T11:43:11.426Z,1001.11
2022-11-22T11:44:11.608Z,1001.19
2022-11-22T11:45:11.774Z,1001.18
2022-11-22T11:46:11.918Z,1001.19
2022-11-22T11:47:12.096Z,1001.20
2022-11-22T11:48:12.298Z,1001.20
2022-11-22T11:49:12.448Z,1001.17
2022-11-22T11:50:12.628Z,1001.12
2022-11-22T11:51:12.808Z,1001.21
2022-11-22T11:52:12.972Z,1001.15
2022-11-22T11:53:13.202Z,1001.25
2022-11-22T11:54:13.313Z,1001.26
2022-11-22T11:55:13.488Z,1001.20
2022-11-22T11:56:13.659Z,1001.18
2022-11-22T11:57:13.898Z,1001.21
2022-11-22T11:58:17.531Z,1001.27
2022-11-22T11:59:14.176Z,1001.26
2022-11-22T12:00:14.360Z,1001.24
2022-11-22T12:01:14.512Z,1001.32
2022-11-22T12:02:14.759Z,1001.25
2022-11-22T12:03:14.852Z,1001.19
2022-11-22T12:04:15.074Z,1001.17
2022-11-22T12:05:15.187Z,1001.13
2022-11-22T12:06:15.370Z,1001.14
2022-11-22T12:07:15.632Z,1001.21
2022-11-22T12:08:15.715Z,1001.20
2022-11-22T12:09:15.901Z,1001.20
2022-11-22T12:10:16.056Z,1001.18
2022-11-22T12:11:16.242Z,1001.13